Time;durP1;ratioP1;P1;durP2;ratioP2;P2;SDS_P1;SDS_P2;PMS_P1;PMS_P2;Temp;Humidity;BMP_temperature;BMP_pressure;BME280_temperature;BME280_humidity;BME280_pressure;Samples;Min_cycle;Max_cycle;Signal;HPM_P1;HPM_P2
2022/08/03 00:01:16;;;;;;;;;0.33;0.33;;;;;25.57;59.27;100799.09;4951910;28;46414;-85
2022/08/03 00:03:42;;;;;;;;;4.00;4.00;;;;;25.57;59.57;100796.38;4969543;28;45924;-85
2022/08/03 00:06:08;;;;;;;;;5.00;5.00;;;;;25.48;59.79;100791.38;4969083;28;45567;-85
2022/08/03 00:08:33;;;;;;;;;3.67;3.67;;;;;25.48;59.96;100799.56;4967796;28;47007;-85
2022/08/03 00:10:58;;;;;;;;;5.67;5.67;;;;;25.45;59.88;100803.31;4951822;28;45884;-85
2022/08/03 00:13:25;;;;;;;;;5.00;5.00;;;;;25.37;60.04;100797.34;4968447;28;45467;-85
2022/08/03 00:15:50;;;;;;;;;7.00;3.67;;;;;25.34;60.39;100801.06;4967377;28;45549;-85
2022/08/03 00:18:16;;;;;;;;;6.00;6.00;;;;;25.32;60.74;100805.69;4966836;28;46963;-86
2022/08/03 00:20:42;;;;;;;;;4.00;3.00;;;;;25.26;60.87;100805.09;4950922;28;45750;-86
2022/08/03 00:23:07;;;;;;;;;5.33;3.67;;;;;25.28;60.84;100809.53;4951250;28;45359;-86
2022/08/03 00:25:34;;;;;;;;;5.33;5.33;;;;;25.27;60.26;100801.41;4967599;28;45434;-86
2022/08/03 00:28:01;;;;;;;;;4.67;4.67;;;;;25.21;61.12;100807.09;4966233;28;47352;-85
2022/08/03 00:30:27;;;;;;;;;4.33;3.00;;;;;25.15;61.13;100802.84;4949246;28;44895;-85
2022/08/03 00:32:52;;;;;;;;;6.33;4.33;;;;;25.09;61.43;100800.41;4949622;28;44990;-85
2022/08/03 00:35:17;;;;;;;;;2.67;2.67;;;;;25.11;61.62;100807.56;4961148;28;45492;-86
2022/08/03 00:37:43;;;;;;;;;4.00;4.00;;;;;25.09;61.61;100806.72;4967370;28;45486;-85
2022/08/03 00:40:13;;;;;;;;;3.67;3.67;;;;;24.98;61.97;100791.84;4952969;28;45316;-85
2022/08/03 00:43:06;;;;;;;;;3.67;3.67;;;;;24.98;62.00;100786.41;4969573;28;44846;-85
2022/08/03 00:45:34;;;;;;;;;3.67;3.67;;;;;25.03;62.40;100803.41;4965448;28;45191;-84
2022/08/03 00:48:00;;;;;;;;;4.33;4.33;;;;;24.99;62.02;100804.50;4967611;28;46107;-85
2022/08/03 00:50:28;;;;;;;;;5.33;3.67;;;;;24.98;62.11;100806.31;4969279;28;45067;-85
2022/08/03 00:52:56;;;;;;;;;2.00;2.00;;;;;24.93;62.30;100792.94;4969440;28;44740;-85
2022/08/03 00:55:23;;;;;;;;;3.33;3.33;;;;;24.94;62.55;100800.16;4950420;28;45295;-85
2022/08/03 00:57:49;;;;;;;;;3.33;3.33;;;;;24.90;62.52;100784.91;4982197;28;45352;-85
2022/08/03 01:00:18;;;;;;;;;4.67;4.00;;;;;24.88;62.56;100786.81;4967950;28;45783;-85
2022/08/03 01:02:44;;;;;;;;;4.00;4.00;;;;;24.82;62.84;100787.06;4970819;28;45465;-85
2022/08/03 01:05:10;;;;;;;;;6.33;4.33;;;;;24.78;63.06;100782.72;4970192;28;45388;-85
2022/08/03 01:07:45;;;;;;;;;5.00;5.00;;;;;24.81;63.17;100792.63;4967390;28;47087;-86
2022/08/03 01:10:38;;;;;;;;;5.67;5.00;;;;;24.79;63.15;100787.22;4969662;28;45381;-86
2022/08/03 01:13:16;;;;;;;;;4.00;4.00;;;;;24.78;63.72;100781.84;4953207;28;45433;-86
2022/08/03 01:16:05;;;;;;;;;4.33;4.00;;;;;24.78;63.84;100776.41;4971453;28;45345;-85
2022/08/03 01:18:56;;;;;;;;;5.00;4.00;;;;;24.79;63.33;100776.34;4952939;28;46723;-86
2022/08/03 01:21:58;;;;;;;;;5.33;4.00;;;;;24.76;63.86;100771.03;4970483;28;45341;-86
2022/08/03 01:24:50;;;;;;;;;3.67;3.33;;;;;24.74;64.08;100768.41;4932814;28;45361;-85
2022/08/03 01:27:54;;;;;;;;;3.33;3.00;;;;;24.72;64.12;100772.13;4912014;29;45654;-85
2022/08/03 01:30:22;;;;;;;;;4.67;4.67;;;;;24.69;64.82;100772.28;4896173;29;47631;-85
2022/08/03 01:32:57;;;;;;;;;6.00;5.00;;;;;24.64;66.81;100768.84;4881343;29;45443;-86
2022/08/03 01:35:34;;;;;;;;;7.00;7.00;;;;;24.55;66.35;100765.59;4911147;29;45607;-86
2022/08/03 01:38:03;;;;;;;;;4.67;4.67;;;;;24.52;64.66;100773.00;4911979;29;45464;-85
2022/08/03 01:40:36;;;;;;;;;5.33;4.00;;;;;24.42;64.72;100763.44;4911147;29;46849;-85
2022/08/03 01:43:03;;;;;;;;;3.00;3.00;;;;;24.42;65.40;100771.59;4911187;29;45405;-85
2022/08/03 01:45:30;;;;;;;;;2.67;2.67;;;;;24.32;64.00;100757.53;4910910;29;44759;-85
2022/08/03 01:47:57;;;;;;;;;2.00;2.00;;;;;24.27;64.97;100759.56;4928748;28;45335;-86
2022/08/03 01:50:27;;;;;;;;;1.00;1.00;;;;;24.24;64.24;100756.94;4929829;28;48001;-84
2022/08/03 01:52:58;;;;;;;;;1.67;1.67;;;;;24.24;64.40;100757.84;4930236;28;45385;-85
2022/08/03 01:55:27;;;;;;;;;1.00;1.00;;;;;24.20;63.34;100748.06;4914016;28;45460;-85
2022/08/03 01:57:54;;;;;;;;;1.00;1.00;;;;;24.22;63.92;100756.13;4929851;28;45901;-85
2022/08/03 02:00:20;;;;;;;;;1.67;1.67;;;;;24.14;63.04;100749.22;4929267;28;45376;-85
2022/08/03 02:02:49;;;;;;;;;1.67;1.67;;;;;24.11;63.46;100743.00;4913178;28;45580;-85
2022/08/03 02:05:17;;;;;;;;;2.00;2.00;;;;;24.07;63.56;100747.69;4960264;28;45511;-85
2022/08/03 02:07:46;;;;;;;;;2.67;2.00;;;;;24.05;63.65;100752.28;4951434;28;45378;-85
2022/08/03 02:10:15;;;;;;;;;2.00;1.67;;;;;24.06;63.75;100756.81;4952550;28;45477;-84
2022/08/03 02:12:43;;;;;;;;;2.00;2.00;;;;;24.05;63.22;100755.00;4934240;28;45454;-85
2022/08/03 02:15:10;;;;;;;;;2.00;2.00;;;;;23.97;63.24;100735.44;4950087;28;45395;-86
2022/08/03 02:17:37;;;;;;;;;3.00;3.00;;;;;23.96;63.41;100736.41;4969020;28;45679;-85
2022/08/03 02:20:09;;;;;;;;;3.33;1.67;;;;;24.00;63.30;100739.88;4970201;28;47195;-85
2022/08/03 02:22:39;;;;;;;;;1.50;1.50;;;;;23.94;63.54;100736.47;4970994;28;45448;-85
2022/08/03 02:25:05;;;;;;;;;2.00;1.75;;;;;23.98;63.33;100745.38;4971164;28;45361;-86
2022/08/03 02:27:35;;;;;;;;;2.00;2.00;;;;;23.96;63.10;100733.69;4971528;28;45505;-85
2022/08/03 02:30:09;;;;;;;;;1.00;1.00;;;;;23.96;62.41;100742.72;4969996;28;47193;-86
2022/08/03 02:32:39;;;;;;;;;1.00;1.00;;;;;23.95;61.57;100742.75;4969968;28;46004;-85
2022/08/03 02:35:08;;;;;;;;;1.67;1.67;;;;;23.98;62.10;100747.22;4970119;28;45356;-86
2022/08/03 02:37:42;;;;;;;;;2.33;0.67;;;;;24.00;61.61;100735.31;4969679;28;45522;-85
2022/08/03 02:40:11;;;;;;;;;3.00;1.33;;;;;23.99;62.60;100743.53;4986029;28;47371;-85
2022/08/03 02:42:39;;;;;;;;;2.00;2.00;;;;;24.00;62.44;100739.88;4970446;28;45524;-85
2022/08/03 02:45:09;;;;;;;;;1.25;1.25;;;;;23.94;62.36;100732.88;4970599;28;45496;-85
2022/08/03 02:47:36;;;;;;;;;2.33;2.33;;;;;23.87;62.12;100725.91;4985837;28;45742;-86
2022/08/03 02:50:03;;;;;;;;;2.00;2.00;;;;;23.94;61.88;100741.00;4969600;28;47557;-85
2022/08/03 02:52:32;;;;;;;;;2.00;2.00;;;;;23.96;62.04;100736.41;4953532;28;45405;-85
2022/08/03 02:55:01;;;;;;;;;2.00;2.00;;;;;23.89;62.10;100716.72;4969695;28;45222;-85
2022/08/03 02:57:29;;;;;;;;;2.00;2.00;;;;;23.90;62.29;100723.94;4970716;28;45566;-85
2022/08/03 02:59:56;;;;;;;;;3.33;1.67;;;;;23.93;61.96;100731.06;4969677;28;46717;-85
2022/08/03 03:02:23;;;;;;;;;1.67;1.67;;;;;23.91;62.65;100725.69;4970197;28;45368;-86
2022/08/03 03:04:51;;;;;;;;;2.00;1.67;;;;;23.91;62.47;100727.53;4968982;28;45353;-85
2022/08/03 03:07:17;;;;;;;;;4.33;3.67;;;;;23.89;62.54;100726.72;4970476;28;45457;-85
2022/08/03 03:13:05;;;;;;;;;2.00;2.00;;;;;23.81;62.77;100718.00;4970674;28;45377;-86
2022/08/03 03:15:34;;;;;;;;;1.50;1.00;;;;;23.86;63.12;100732.31;4969802;28;45717;-85
2022/08/03 03:18:00;;;;;;;;;2.00;2.00;;;;;23.85;63.11;100722.38;4985752;28;44919;-85
2022/08/03 03:20:27;;;;;;;;;3.00;3.00;;;;;23.89;62.97;100732.16;4985777;28;47134;-86
2022/08/03 03:22:54;;;;;;;;;1.67;1.67;;;;;23.89;62.90;100724.00;4967471;28;45362;-84
2022/08/03 03:25:20;;;;;;;;;1.33;1.33;;;;;23.92;62.62;100729.31;4966988;28;45425;-85
2022/08/03 03:27:47;;;;;;;;;3.33;2.67;;;;;23.87;62.89;100723.19;4963333;28;45373;-86
2022/08/03 03:30:13;;;;;;;;;2.33;2.33;;;;;23.91;62.92;100720.28;4948755;28;45579;-86
2022/08/03 03:32:39;;;;;;;;;4.00;2.00;;;;;23.91;62.69;100724.81;4948240;28;45434;-85
2022/08/03 03:35:06;;;;;;;;;1.67;1.67;;;;;23.89;62.92;100716.72;4948409;28;44803;-86
2022/08/03 03:37:31;;;;;;;;;3.33;3.33;;;;;23.90;62.94;100712.22;4964375;28;45330;-85
2022/08/03 03:39:57;;;;;;;;;2.00;2.00;;;;;23.88;63.08;100712.28;4964287;28;47407;-85
2022/08/03 03:42:24;;;;;;;;;1.00;1.00;;;;;23.82;63.45;100706.22;4958274;28;45611;-85
2022/08/03 03:44:50;;;;;;;;;1.67;1.67;;;;;23.75;63.64;100701.00;4984704;28;45321;-85
2022/08/03 03:47:16;;;;;;;;;2.67;2.67;;;;;23.79;63.40;100714.47;4968079;28;45406;-85
2022/08/03 03:49:42;;;;;;;;;3.00;3.00;;;;;23.70;63.71;100702.13;4984459;28;47087;-85
2022/08/03 03:52:09;;;;;;;;;2.33;2.33;;;;;23.70;64.02;100704.84;4983804;28;46288;-86
2022/08/03 03:54:40;;;;;;;;;2.00;2.00;;;;;23.70;64.25;100705.72;4967034;28;45385;-86
2022/08/03 03:57:07;;;;;;;;;2.67;2.67;;;;;23.72;64.26;100709.25;4968097;28;45409;-86
2022/08/03 03:59:37;;;;;;;;;2.33;2.33;;;;;23.66;64.37;100698.66;4983737;28;46903;-85
2022/08/03 04:02:03;;;;;;;;;3.00;3.00;;;;;23.63;63.93;100703.31;4966398;28;45415;-86
2022/08/03 04:12:56;;;;;;;;;3.33;3.00;;;;;23.56;64.87;100711.72;4968914;28;45478;-85
2022/08/03 04:15:26;;;;;;;;;3.67;3.67;;;;;23.54;64.69;100705.47;4968833;28;45762;-86
2022/08/03 04:18:03;;;;;;;;;4.00;4.00;;;;;23.58;65.08;100710.78;4968716;28;45734;-85
2022/08/03 04:20:31;;;;;;;;;4.33;3.00;;;;;23.53;65.08;100708.22;4967425;28;47140;-85
2022/08/03 04:22:59;;;;;;;;;3.67;2.33;;;;;23.57;65.02;100720.72;4959546;28;46207;-85
2022/08/03 04:25:29;;;;;;;;;4.00;4.00;;;;;23.55;65.04;100707.25;4950672;28;45501;-85
2022/08/03 04:27:58;;;;;;;;;3.67;3.67;;;;;23.59;64.78;100716.13;4950789;28;44839;-85
2022/08/03 04:30:26;;;;;;;;;2.33;2.33;;;;;23.56;65.35;100713.56;4966571;28;47303;-85
2022/08/03 04:32:55;;;;;;;;;3.00;3.00;;;;;23.52;65.30;100706.47;4967872;28;45297;-85
2022/08/03 04:35:23;;;;;;;;;4.00;4.00;;;;;23.58;65.66;100716.22;4966219;28;45498;-86
2022/08/03 04:37:51;;;;;;;;;4.67;4.00;;;;;23.61;66.05;100719.66;4967503;28;45870;-85
2022/08/03 04:40:40;;;;;;;;;3.33;3.33;;;;;23.59;65.71;100707.97;4966454;28;47801;-85
2022/08/03 04:43:07;;;;;;;;;4.00;4.00;;;;;23.65;66.13;100728.56;4967330;28;45396;-85
2022/08/03 04:45:37;;;;;;;;;5.00;3.00;;;;;23.63;66.00;100708.75;4967709;28;45455;-85
2022/08/03 04:48:03;;;;;;;;;2.00;2.00;;;;;23.67;66.23;100710.41;4966181;28;45598;-85
2022/08/03 04:50:29;;;;;;;;;3.00;3.00;;;;;23.66;66.46;100708.63;4967367;28;45605;-86
2022/08/03 04:52:55;;;;;;;;;2.00;2.00;;;;;23.65;66.25;100702.34;4966040;28;45753;-84
2022/08/03 04:55:28;;;;;;;;;4.33;4.00;;;;;23.68;66.79;100713.06;4964462;28;45406;-85
2022/08/03 04:57:54;;;;;;;;;3.00;3.00;;;;;23.69;66.46;100703.97;4949324;28;44831;-86
2022/08/03 05:00:19;;;;;;;;;5.33;4.33;;;;;23.74;66.70;100707.38;4965691;28;45401;-85
2022/08/03 05:02:50;;;;;;;;;4.33;4.33;;;;;23.82;66.63;100714.38;4965297;28;45506;-84
2022/08/03 05:05:16;;;;;;;;;6.00;4.67;;;;;23.91;66.54;100720.28;4967383;28;45436;-85
2022/08/03 05:07:43;;;;;;;;;5.00;4.00;;;;;23.97;66.33;100710.97;4961188;28;45357;-85
2022/08/03 05:10:10;;;;;;;;;4.00;3.33;;;;;24.06;65.85;100713.31;4967499;28;44996;-86
2022/08/03 05:12:41;;;;;;;;;3.33;3.33;;;;;24.16;65.58;100706.53;4950283;28;45790;-86
2022/08/03 05:15:07;;;;;;;;;6.00;4.67;;;;;24.24;65.27;100724.34;4974345;28;44857;-85
2022/08/03 05:17:33;;;;;;;;;2.00;2.00;;;;;24.31;65.14;100724.00;4966850;28;45445;-85
2022/08/03 05:20:05;;;;;;;;;4.00;4.00;;;;;24.39;64.75;100715.53;4966655;28;46034;-85
2022/08/03 05:22:32;;;;;;;;;5.33;4.33;;;;;24.49;64.80;100722.31;4966796;28;45438;-85
2022/08/03 05:24:57;;;;;;;;;7.00;5.00;;;;;24.55;63.76;100718.50;4967156;28;45409;-85
2022/08/03 05:27:23;;;;;;;;;4.67;4.67;;;;;24.47;64.17;100682.56;4965578;28;45349;-85
2022/08/03 05:29:49;;;;;;;;;3.67;3.67;;;;;24.72;63.94;100707.75;4966406;28;46068;-85
2022/08/03 05:32:16;;;;;;;;;7.00;7.00;;;;;24.78;63.36;100701.13;4949108;28;45362;-85
2022/08/03 05:34:41;;;;;;;;;4.00;4.00;;;;;24.85;62.70;100691.75;4964703;28;45457;-85
2022/08/03 05:37:07;;;;;;;;;5.00;5.00;;;;;24.88;63.12;100680.72;4965177;28;45954;-85
2022/08/03 05:39:34;;;;;;;;;5.33;4.00;;;;;25.12;61.74;100707.72;4965125;28;47112;-85
2022/08/03 05:42:27;;;;;;;;;4.00;4.00;;;;;25.07;61.22;100698.91;4948543;28;45526;-85
2022/08/03 05:44:53;;;;;;;;;6.33;4.67;;;;;25.25;61.36;100730.75;4967866;28;44977;-85
2022/08/03 05:47:21;;;;;;;;;4.67;4.67;;;;;25.11;61.38;100693.25;4967993;28;45619;-84
2022/08/03 05:49:50;;;;;;;;;5.00;3.00;;;;;25.41;61.05;100727.25;4971166;28;45494;-85
2022/08/03 05:52:15;;;;;;;;;5.00;5.00;;;;;25.43;60.43;100703.56;4970170;28;45378;-85
2022/08/03 05:54:41;;;;;;;;;3.67;2.67;;;;;25.73;60.13;100725.69;4971457;28;44747;-85
2022/08/03 05:57:11;;;;;;;;;6.33;5.33;;;;;25.81;58.84;100728.06;4966069;28;45799;-85
2022/08/03 05:59:40;;;;;;;;;4.67;4.67;;;;;25.95;58.79;100731.00;4969951;28;45656;-84
2022/08/03 06:02:09;;;;;;;;;5.67;5.00;;;;;26.07;57.71;100737.69;4969722;28;45461;-85
2022/08/03 06:04:35;;;;;;;;;4.67;4.67;;;;;26.00;57.48;100728.06;4937063;28;45478;-85
2022/08/03 06:07:04;;;;;;;;;4.33;4.33;;;;;25.94;57.30;100715.63;4968896;28;45489;-86
2022/08/03 06:09:33;;;;;;;;;4.33;4.33;;;;;25.90;57.23;100706.72;4971304;28;45649;-85
2022/08/03 06:12:04;;;;;;;;;6.00;5.00;;;;;26.01;56.93;100717.06;4952263;28;45483;-85
2022/08/03 06:14:33;;;;;;;;;5.67;5.67;;;;;26.26;56.92;100738.50;4962855;28;45306;-85
2022/08/03 06:16:59;;;;;;;;;7.33;6.67;;;;;26.14;56.32;100696.41;4971689;28;45438;-85
2022/08/03 06:19:32;;;;;;;;;6.00;5.00;;;;;26.41;56.14;100725.91;4939562;28;47162;-85
2022/08/03 06:22:00;;;;;;;;;4.33;4.33;;;;;26.31;56.42;100700.09;4951464;28;45485;-86
2022/08/03 06:24:43;;;;;;;;;;;;;;;;;;;;;
2022/08/03 06:27:29;;;;;;;;;5.00;5.00;;;;;26.77;55.47;100727.69;4950753;28;67273;-85
2022/08/03 06:29:56;;;;;;;;;6.33;4.67;;;;;26.91;55.01;100729.69;4933704;28;47267;-85
2022/08/03 06:32:24;;;;;;;;;3.00;3.00;;;;;26.99;55.09;100718.34;4932935;28;45361;-85
2022/08/03 06:34:50;;;;;;;;;6.00;5.67;;;;;27.01;53.49;100698.19;4944235;28;44812;-85
2022/08/03 06:37:28;;;;;;;;;6.33;3.33;;;;;27.26;54.03;100730.50;4933508;28;44879;-85
2022/08/03 06:40:00;;;;;;;;;6.00;3.67;;;;;27.34;53.53;100735.53;4932773;28;47369;-86
2022/08/03 06:42:35;;;;;;;;;;;;;;;;;;;;;
2022/08/03 06:45:08;;;;;;;;;6.00;6.00;;;;;27.54;52.56;100735.28;4950298;28;67797;-85
2022/08/03 06:47:42;;;;;;;;;7.33;6.00;;;;;27.44;52.19;100723.13;4951304;28;45323;-85
2022/08/03 06:50:11;;;;;;;;;9.00;7.33;;;;;27.49;52.20;100734.69;4944796;28;47105;-86
2022/08/03 06:52:39;;;;;;;;;4.00;4.00;;;;;27.46;52.33;100714.84;4934553;28;45313;-86
2022/08/03 06:55:12;;;;;;;;;6.33;6.33;;;;;27.62;51.70;100721.19;4947161;28;45492;-86
2022/08/03 06:57:45;;;;;;;;;6.00;6.00;;;;;27.80;51.96;100740.22;4934490;28;45871;-85
2022/08/03 07:00:29;;;;;;;;;7.00;5.67;;;;;27.87;51.43;100730.72;4950151;28;46744;-85
2022/08/03 07:02:58;;;;;;;;;5.67;3.00;;;;;27.70;50.58;100698.88;4957929;28;45477;-85
2022/08/03 07:05:36;;;;;;;;;6.00;6.00;;;;;27.93;50.80;100734.00;4937619;28;45490;-85
2022/08/03 07:08:09;;;;;;;;;4.00;3.33;;;;;27.82;51.04;100700.91;4951182;28;45477;-85
2022/08/03 07:10:41;;;;;;;;;2.00;2.00;;;;;27.86;49.75;100697.00;4949700;28;46782;-85
2022/08/03 07:13:21;;;;;;;;;5.67;4.67;;;;;28.05;50.81;100726.91;4952319;28;45666;-85
2022/08/03 07:16:11;;;;;;;;;7.00;4.33;;;;;28.01;49.77;100729.91;4968034;28;45392;-85
2022/08/03 07:37:12;;;;;;;;;4.67;4.67;;;;;28.33;49.45;100706.97;4911010;29;44918;-85
2022/08/03 07:40:27;;;;;;;;;5.00;5.00;;;;;28.49;48.62;100711.53;4910362;29;45882;-85
2022/08/03 07:43:29;;;;;;;;;;;;;;;;;;;;;
2022/08/03 07:46:08;;;;;;;;;6.00;4.33;;;;;28.75;47.80;100712.69;4860975;28;64758;-84
2022/08/03 07:48:57;;;;;;;;;6.00;5.00;;;;;28.88;47.15;100724.63;4930602;28;45957;-85
2022/08/03 07:51:41;;;;;;;;;4.33;4.00;;;;;28.83;46.53;100726.75;4930155;28;45496;-83
2022/08/03 07:54:54;;;;;;;;;3.33;3.33;;;;;28.90;47.56;100714.47;4928135;28;45600;-84
2022/08/03 07:57:39;;;;;;;;;5.67;5.00;;;;;29.11;46.96;100725.06;4926904;28;45594;-85
2022/08/03 08:00:20;;;;;;;;;8.33;7.33;;;;;29.21;46.54;100708.88;4985542;28;47003;-84
2022/08/03 08:14:12;;;;;;;;;;;;;;;;;;;;;
2022/08/03 08:17:34;;;;;;;;;7.00;7.00;;;;;29.92;44.78;100738.06;4784523;29;72365;-85
2022/08/03 08:24:47;;;;;;;;;6.00;5.00;;;;;30.00;42.99;100712.88;4747140;29;45551;-86
2022/08/03 08:27:44;;;;;;;;;6.00;6.00;;;;;30.16;43.47;100734.63;4741951;30;45484;-85
2022/08/03 08:33:49;;;;;;;;;6.33;6.33;;;;;30.28;42.80;100703.63;4718152;30;45525;-86
2022/08/03 08:36:36;;;;;;;;;9.33;9.00;;;;;30.35;42.60;100685.78;4711722;30;45454;-86
2022/08/03 08:39:58;;;;;;;;;8.00;6.33;;;;;30.78;42.63;100731.28;4695500;30;45688;-87
2022/08/03 08:42:56;;;;;;;;;7.00;5.00;;;;;30.66;41.87;100691.84;4709208;30;45359;-87
2022/08/03 08:46:14;;;;;;;;;7.67;5.67;;;;;30.64;41.87;100691.97;4942868;22;45263;-86
2022/08/03 08:49:56;;;;;;;;;5.00;5.00;;;;;30.70;41.22;100680.56;4969185;28;45510;-86
2022/08/03 08:52:43;;;;;;;;;6.33;6.33;;;;;30.92;41.10;100722.09;4953389;28;45313;-86
2022/08/03 08:59:03;;;;;;;;;3.00;3.00;;;;;30.70;41.06;100682.41;4931038;28;45479;-85
2022/08/03 09:01:59;;;;;;;;;;;;;;;;;;;;;
2022/08/03 10:29:31;;;;;;;;;;;;;;;;;;;;;
2022/08/03 10:36:32;;;;;;;;;2.00;2.00;;;;;31.82;34.99;100637.56;4842018;29;44905;-86
2022/08/03 10:39:19;;;;;;;;;3.67;3.67;;;;;31.69;34.62;100622.03;4836296;29;45558;-85
2022/08/03 10:42:10;;;;;;;;;2.33;2.33;;;;;31.64;34.92;100607.75;4837701;29;45501;-86
2022/08/03 10:45:37;;;;;;;;;;;;;;;;;;;;;
2022/08/03 10:48:07;;;;;;;;;3.33;3.33;;;;;31.58;34.42;100599.97;4838004;29;65098;-85
2022/08/03 10:50:53;;;;;;;;;4.00;4.00;;;;;31.65;34.57;100606.75;4836006;29;45794;-84
2022/08/03 10:53:42;;;;;;;;;5.33;4.33;;;;;31.94;35.07;100641.25;4914898;28;45362;-84
2022/08/03 10:59:54;;;;;;;;;1.33;1.33;;;;;32.07;34.70;100629.19;4895918;29;44764;-85
2022/08/03 11:03:20;;;;;;;;;3.00;3.00;;;;;31.87;34.59;100596.84;4894710;29;45156;-87
2022/08/03 11:06:24;;;;;;;;;3.00;3.00;;;;;32.11;35.28;100621.56;4764736;29;45492;-85
2022/08/03 11:09:19;;;;;;;;;2.00;2.00;;;;;32.20;34.46;100623.63;4780759;29;45292;-85
2022/08/03 11:11:53;;;;;;;;;2.00;2.00;;;;;32.23;34.33;100623.38;4887341;29;45552;-85
2022/08/03 11:14:26;;;;;;;;;3.00;3.00;;;;;32.32;34.93;100627.28;4896825;28;45430;-84
2022/08/03 11:17:18;;;;;;;;;2.33;2.33;;;;;32.38;34.58;100609.38;4931454;28;45336;-84
2022/08/03 11:20:10;;;;;;;;;2.00;2.00;;;;;32.32;34.14;100597.00;4932266;28;44825;-85
2022/08/03 11:23:20;;;;;;;;;2.33;2.33;;;;;32.22;34.07;100568.47;4931842;28;45354;-85
2022/08/03 11:26:24;;;;;;;;;3.00;1.33;;;;;32.38;34.27;100604.78;4915181;28;45357;-85
2022/08/03 11:29:03;;;;;;;;;2.00;2.00;;;;;32.29;34.29;100602.75;4933852;28;45343;-84
2022/08/03 11:31:35;;;;;;;;;4.00;3.00;;;;;32.28;34.17;100593.63;4948625;28;45437;-85
2022/08/03 11:34:38;;;;;;;;;4.00;4.00;;;;;32.24;34.14;100572.84;4944951;28;45415;-85
2022/08/03 11:37:35;;;;;;;;;2.00;2.00;;;;;32.30;33.93;100563.22;4945558;28;45668;-85
2022/08/03 11:40:10;;;;;;;;;3.00;3.00;;;;;32.33;32.92;100562.97;4929407;28;45263;-84
2022/08/03 11:42:55;;;;;;;;;2.33;2.33;;;;;32.46;33.40;100579.34;4933685;28;44884;-85
2022/08/03 11:45:44;;;;;;;;;3.00;3.00;;;;;32.52;33.18;100578.00;4929687;28;45338;-84
2022/08/03 11:49:22;;;;;;;;;;;;;;;;;;;;;
2022/08/03 11:52:05;;;;;;;;;4.00;4.00;;;;;32.54;33.36;100587.00;4910998;28;73129;-86
2022/08/03 11:55:48;;;;;;;;;;;;;;;;;;;;;
2022/08/03 11:59:12;;;;;;;;;2.00;2.00;;;;;32.41;32.79;100552.22;4817452;29;45329;-86
2022/08/03 12:02:31;;;;;;;;;4.67;4.67;;;;;32.41;33.16;100560.47;4763786;29;45867;-85
2022/08/03 12:05:41;;;;;;;;;3.33;3.33;;;;;32.46;32.55;100560.09;4761272;29;45448;-85
2022/08/03 12:08:42;;;;;;;;;3.33;3.33;;;;;32.56;32.98;100572.16;4748805;29;45540;-86
2022/08/03 12:12:13;;;;;;;;;3.00;3.00;;;;;32.57;33.16;100560.13;4781332;29;45521;-87
2022/08/03 12:15:25;;;;;;;;;3.33;3.33;;;;;32.68;32.46;100570.28;4778212;29;45878;-84
2022/08/03 12:17:58;;;;;;;;;2.00;2.00;;;;;32.66;33.18;100567.66;4715818;29;45453;-85
2022/08/03 12:20:28;;;;;;;;;2.00;2.00;;;;;32.58;32.08;100548.16;4743907;30;45462;-83
2022/08/03 12:23:06;;;;;;;;;2.00;2.00;;;;;32.61;31.82;100555.28;4718978;30;45457;-85
2022/08/03 12:25:44;;;;;;;;;3.33;3.33;;;;;32.60;32.44;100542.47;4727139;29;45503;-85
2022/08/03 12:35:04;;;;;;;;;2.00;2.00;;;;;32.84;31.81;100550.59;4763091;29;45513;-84
2022/08/03 12:37:58;;;;;;;;;3.00;2.33;;;;;32.77;31.76;100536.47;4763125;29;45519;-85
2022/08/03 12:40:27;;;;;;;;;4.67;4.67;;;;;32.72;31.18;100543.34;4761222;29;45487;-85
2022/08/03 12:43:03;;;;;;;;;4.00;4.00;;;;;32.68;32.06;100539.97;4748552;29;45488;-85
2022/08/03 12:45:48;;;;;;;;;4.33;3.67;;;;;32.81;32.55;100568.28;4762362;29;45378;-85
2022/08/03 12:48:18;;;;;;;;;4.67;2.33;;;;;32.65;32.54;100537.50;4792789;29;45410;-85
2022/08/03 12:50:44;;;;;;;;;3.00;3.00;;;;;32.79;32.01;100548.25;4818857;29;45498;-85
2022/08/03 12:57:24;;;;;;;;;4.00;4.00;;;;;32.77;32.51;100522.72;4970153;28;45480;-85
2022/08/03 13:00:12;;;;;;;;;3.67;3.67;;;;;33.02;31.85;100556.47;4972857;28;45172;-85
2022/08/03 13:02:42;;;;;;;;;3.00;3.00;;;;;33.08;31.27;100550.44;4972048;28;44827;-85
2022/08/03 13:05:13;;;;;;;;;5.00;3.67;;;;;33.00;30.79;100536.44;4970110;28;44913;-85
2022/08/03 13:07:43;;;;;;;;;3.00;3.00;;;;;33.11;31.01;100536.47;4970487;28;44957;-85
2022/08/03 13:10:09;;;;;;;;;3.33;2.67;;;;;32.96;30.73;100507.41;4970145;28;46885;-85
2022/08/03 13:12:59;;;;;;;;;2.00;2.00;;;;;33.17;29.92;100546.09;4954168;28;44807;-85
2022/08/03 13:15:38;;;;;;;;;2.67;2.67;;;;;33.02;30.88;100512.38;4944934;28;45585;-83
2022/08/03 13:18:04;;;;;;;;;3.00;2.00;;;;;33.07;29.57;100515.66;4956262;28;45463;-85
2022/08/03 13:20:33;;;;;;;;;2.33;1.33;;;;;33.09;30.54;100513.66;4952205;28;47603;-86
2022/08/03 13:23:05;;;;;;;;;3.00;3.00;;;;;33.26;30.53;100535.16;4952760;28;45477;-84
2022/08/03 13:25:36;;;;;;;;;3.00;3.00;;;;;33.26;30.63;100524.13;4952371;28;45465;-84
2022/08/03 13:28:05;;;;;;;;;4.33;3.33;;;;;33.36;30.32;100528.88;4936144;28;45275;-85
2022/08/03 13:30:38;;;;;;;;;3.67;2.67;;;;;33.19;29.69;100498.09;4953528;28;45437;-84
2022/08/03 13:33:04;;;;;;;;;3.33;3.00;;;;;33.21;30.54;100509.88;4948519;28;45430;-86
2022/08/03 13:36:05;;;;;;;;;3.00;3.00;;;;;33.11;29.85;100500.63;4951164;28;44939;-85
2022/08/03 13:42:53;;;;;;;;;2.00;2.00;;;;;32.95;30.28;100478.13;4888717;29;45551;-87
2022/08/03 13:46:01;;;;;;;;;4.00;2.33;;;;;33.19;30.45;100514.63;4847088;29;45477;-85
2022/08/03 13:58:47;;;;;;;;;25.67;23.67;;;;;33.94;29.46;100507.28;4837673;29;45492;-85
2022/08/03 14:02:16;;;;;;;;;;;;;;;;;;;;;
2022/08/03 14:15:55;;;;;;;;;;;;;;;;;;;;;
2022/08/03 14:19:22;;;;;;;;;3.33;3.33;;;;;45.71;16.92;100470.44;4693050;30;45520;-86
2022/08/03 14:25:30;;;;;;;;;2.33;2.33;;;;;48.43;16.33;100480.53;4736153;30;45349;-86
2022/08/03 14:28:13;;;;;;;;;2.67;2.00;;;;;49.49;16.21;100457.63;4719352;30;45333;-86
2022/08/03 14:31:14;;;;;;;;;1.33;1.33;;;;;50.72;15.37;100483.22;4746200;30;45392;-86
2022/08/03 14:34:06;;;;;;;;;2.00;2.00;;;;;50.99;14.01;100458.03;4738671;29;45669;-86
2022/08/03 14:36:45;;;;;;;;;3.00;3.00;;;;;49.96;13.78;100455.72;4726658;30;45341;-87
2022/08/03 14:39:45;;;;;;;;;2.67;1.67;;;;;50.01;14.21;100446.50;4726168;30;45491;-87
2022/08/03 14:43:06;;;;;;;;;1.67;1.67;;;;;51.00;14.58;100440.75;4727949;29;45497;-86
2022/08/03 14:46:19;;;;;;;;;2.00;1.00;;;;;51.57;12.69;100436.16;4709830;30;45936;-86
2022/08/03 14:49:15;;;;;;;;;1.33;1.33;;;;;51.40;12.11;100422.81;4729153;30;45556;-85
2022/08/03 14:52:27;;;;;;;;;2.67;2.00;;;;;52.17;12.79;100449.63;4759699;29;45652;-86
2022/08/03 14:55:26;;;;;;;;;1.33;1.33;;;;;53.06;13.06;100438.25;4835631;29;45605;-86
2022/08/03 14:58:20;;;;;;;;;1.00;1.00;;;;;54.02;11.55;100440.28;4852242;29;45476;-86
2022/08/03 15:01:07;;;;;;;;;1.33;1.33;;;;;53.93;11.76;100447.59;4851117;29;44898;-86
2022/08/03 15:03:38;;;;;;;;;1.00;1.00;;;;;51.18;12.16;100433.19;4840536;29;45625;-86
2022/08/03 15:06:16;;;;;;;;;1.00;1.00;;;;;49.58;13.40;100439.22;4875368;29;44941;-86
2022/08/03 15:09:10;;;;;;;;;1.00;1.00;;;;;51.14;13.25;100400.81;4891887;29;45441;-86
2022/08/03 15:11:39;;;;;;;;;0.67;0.67;;;;;52.57;12.24;100414.41;4891294;29;45435;-85
2022/08/03 15:14:41;;;;;;;;;1.00;1.00;;;;;53.75;12.15;100423.25;4906836;29;45910;-86
2022/08/03 15:17:17;;;;;;;;;0.50;0.50;;;;;54.70;9.94;100411.84;4890485;28;45550;-87
2022/08/03 15:20:18;;;;;;;;;1.33;1.00;;;;;56.02;10.83;100392.25;4949388;28;45568;-87
2022/08/03 15:23:30;;;;;;;;;0.33;0.33;;;;;58.20;10.28;100416.97;4943413;28;45354;-88
2022/08/03 15:30:11;;;;;;;;;2.00;2.00;;;;;60.27;6.75;100416.25;4907750;28;45466;-89
2022/08/03 15:33:32;;;;;;;;;0.67;0.67;;;;;60.23;7.85;100393.03;4902423;29;45526;-88
2022/08/03 15:36:31;;;;;;;;;1.33;1.33;;;;;60.20;7.62;100408.03;4858543;29;45590;-87
2022/08/03 15:42:45;;;;;;;;;1.33;1.00;;;;;59.77;7.84;100382.50;4867304;29;45554;-87
2022/08/03 15:49:29;;;;;;;;;1.33;1.33;;;;;57.88;8.09;100381.28;4846371;29;45416;-88